Time,TemperatureF,DewpointF,PressureIn,WindDirection,WindDirectionDegrees,WindSpeedMPH,WindSpeedGustMPH,Humidity,HourlyPrecipIn,Conditions,Clouds,dailyrainin,SoftwareType,DateUTC
2013-01-01 00:03:00,31.0,22.0,-100.00,SE,135,3.0,6.0,69,0.00,,,-99.99,,2013-01-01 05:03:00,
2013-01-01 00:12:00,31.0,23.0,-100.00,East,100,1.0,4.0,70,0.00,,,-99.99,,2013-01-01 05:12:00,
2013-01-01 00:22:00,31.0,23.0,-100.00,East,100,1.0,4.0,71,0.00,,,-99.99,,2013-01-01 05:22:00,
2013-01-01 00:33:00,31.0,23.0,-100.00,East,100,1.0,4.0,72,0.00,,,-99.99,,2013-01-01 05:33:00,
2013-01-01 00:42:00,31.0,24.0,-100.00,ENE,65,1.0,2.0,73,0.00,,,-99.99,,2013-01-01 05:42:00,
2013-01-01 00:52:00,32.0,24.0,-100.00,ENE,65,1.0,3.0,71,0.00,,,-99.99,,2013-01-01 05:52:00,
2013-01-01 01:02:00,32.0,23.0,-100.00,East,80,0.0,2.0,70,0.00,,,-99.99,,2013-01-01 06:02:00,
2013-01-01 01:12:00,32.0,24.0,-100.00,ENE,60,1.0,2.0,72,0.00,,,-99.99,,2013-01-01 06:12:00,
2013-01-01 01:22:00,32.0,25.0,-100.00,NNE,30,1.0,3.0,72,0.00,,,-99.99,,2013-01-01 06:22:00,
2013-01-01 01:32:00,33.0,25.0,-100.00,West,280,1.0,3.0,72,0.00,,,-99.99,,2013-01-01 06:32:00,
2013-01-01 01:42:00,32.0,25.0,-100.00,East,100,1.0,3.0,73,0.00,,,-99.99,,2013-01-01 06:42:00,
2013-01-01 01:52:00,32.0,25.0,-100.00,SE,140,2.0,3.0,74,0.00,,,-99.99,,2013-01-01 06:52:00,
2013-01-01 02:02:00,32.0,25.0,-100.00,SSE,150,2.0,5.0,73,0.00,,,-99.99,,2013-01-01 07:02:00,
2013-01-01 02:12:00,32.0,25.0,-100.00,SE,145,1.0,4.0,74,0.00,,,-99.99,,2013-01-01 07:12:00,
2013-01-01 02:22:00,32.0,25.0,-100.00,East,80,1.0,4.0,74,0.00,,,-99.99,,2013-01-01 07:22:00,
2013-01-01 02:32:00,32.0,25.0,-100.00,East,90,1.0,4.0,74,0.00,,,-99.99,,2013-01-01 07:32:00,
2013-01-01 02:42:00,32.0,25.0,-100.00,East,80,1.0,2.0,74,0.00,,,-99.99,,2013-01-01 07:42:00,
2013-01-01 02:52:00,32.0,25.0,-100.00,East,95,2.0,4.0,74,0.00,,,-99.99,,2013-01-01 07:52:00,
2013-01-01 03:02:00,32.0,26.0,-100.00,North,350,0.0,4.0,77,0.00,,,-99.99,,2013-01-01 08:02:00,
2013-01-01 03:12:00,32.0,26.0,-100.00,East,95,2.0,6.0,75,0.00,,,-99.99,,2013-01-01 08:12:00,
2013-01-01 03:22:00,32.0,26.0,-100.00,ENE,70,1.0,4.0,76,0.00,,,-99.99,,2013-01-01 08:22:00,
2013-01-01 03:32:00,33.0,26.0,-100.00,ENE,60,1.0,4.0,77,0.00,,,-99.99,,2013-01-01 08:32:00,
2013-01-01 03:42:00,32.0,26.0,-100.00,ENE,70,1.0,2.0,79,0.00,,,-99.99,,2013-01-01 08:42:00,
2013-01-01 03:53:00,31.0,27.0,-100.00,NE,45,0.0,2.0,81,0.00,,,-99.99,,2013-01-01 08:53:00,
2013-01-01 04:02:00,32.0,27.0,-100.00,East,90,1.0,1.0,80,0.00,,,-99.99,,2013-01-01 09:02:00,
2013-01-01 04:12:00,32.0,27.0,-100.00,SE,145,0.0,3.0,79,0.00,,,-99.99,,2013-01-01 09:12:00,
2013-01-01 04:22:00,33.0,27.0,-100.00,East,100,1.0,2.0,80,0.00,,,-99.99,,2013-01-01 09:22:00,
2013-01-01 04:32:00,33.0,27.0,-100.00,SW,215,1.0,7.0,76,0.00,,,-99.99,,2013-01-01 09:32:00,
2013-01-01 04:42:00,34.0,27.0,-100.00,WNW,290,0.0,2.0,76,0.00,,,-99.99,,2013-01-01 09:42:00,
2013-01-01 04:52:00,35.0,27.0,-100.00,WSW,245,2.0,6.0,73,0.00,,,-99.99,,2013-01-01 09:52:00,
2013-01-01 05:02:00,35.0,27.0,-100.00,West,270,5.0,9.0,71,0.00,,,-99.99,,2013-01-01 10:02:00,
2013-01-01 05:12:00,35.0,26.0,-100.00,SE,145,2.0,10.0,69,0.00,,,-99.99,,2013-01-01 10:12:00,
2013-01-01 05:22:00,35.0,25.0,-100.00,WSW,240,4.0,12.0,67,0.00,,,-99.99,,2013-01-01 10:22:00,
2013-01-01 05:33:00,34.0,25.0,-100.00,West,260,1.0,5.0,68,0.00,,,-99.99,,2013-01-01 10:33:00,
2013-01-01 05:42:00,34.0,25.0,-100.00,West,270,2.0,7.0,68,0.00,,,-99.99,,2013-01-01 10:42:00,
2013-01-01 05:52:00,34.0,23.0,-100.00,West,270,4.0,12.0,64,0.00,,,-99.99,,2013-01-01 10:52:00,
2013-01-01 06:02:00,34.0,23.0,-100.00,NW,315,4.0,12.0,62,0.00,,,-99.99,,2013-01-01 11:02:00,
2013-01-01 06:12:00,34.0,22.0,-100.00,SW,235,3.0,11.0,59,0.00,,,-99.99,,2013-01-01 11:12:00,
2013-01-01 06:23:00,35.0,21.0,-100.00,SW,220,6.0,14.0,56,0.00,,,-99.99,,2013-01-01 11:23:00,
2013-01-01 06:33:00,34.0,20.0,-100.00,WNW,300,2.0,12.0,55,0.00,,,-99.99,,2013-01-01 11:33:00,
2013-01-01 06:42:00,34.0,20.0,-100.00,West,275,5.0,12.0,54,0.00,,,-99.99,,2013-01-01 11:42:00,
2013-01-01 06:53:00,34.0,19.0,-100.00,West,265,2.0,16.0,53,0.00,,,-99.99,,2013-01-01 11:53:00,
2013-01-01 07:02:00,33.0,19.0,-100.00,WSW,240,3.0,9.0,54,0.00,,,-99.99,,2013-01-01 12:02:00,
2013-01-01 07:12:00,33.0,18.0,-100.00,West,265,3.0,10.0,53,0.00,,,-99.99,,2013-01-01 12:12:00,
2013-01-01 07:22:00,33.0,17.0,-100.00,SW,235,4.0,14.0,51,0.00,,,-99.99,,2013-01-01 12:22:00,
2013-01-01 07:33:00,33.0,17.0,-100.00,WSW,250,2.0,17.0,51,0.00,,,-99.99,,2013-01-01 12:33:00,
2013-01-01 07:42:00,32.0,17.0,-100.00,SW,235,1.0,7.0,53,0.00,,,-99.99,,2013-01-01 12:42:00,
2013-01-01 07:52:00,32.0,18.0,-100.00,WSW,250,3.0,7.0,54,0.00,,,-99.99,,2013-01-01 12:52:00,
2013-01-01 08:03:00,33.0,18.0,-100.00,West,275,3.0,12.0,54,0.00,,,-99.99,,2013-01-01 13:03:00,
2013-01-01 08:12:00,33.0,18.0,-100.00,SW,235,6.0,16.0,53,0.00,,,-99.99,,2013-01-01 13:12:00,
2013-01-01 08:22:00,33.0,18.0,-100.00,West,270,5.0,15.0,53,0.00,,,-99.99,,2013-01-01 13:22:00,
2013-01-01 08:33:00,33.0,19.0,-100.00,WSW,255,4.0,12.0,56,0.00,,,-99.99,,2013-01-01 13:33:00,
2013-01-01 08:42:00,32.0,20.0,-100.00,SSW,210,4.0,17.0,61,0.00,,,-99.99,,2013-01-01 13:42:00,
2013-01-01 08:52:00,32.0,21.0,-100.00,WNW,290,5.0,12.0,63,0.00,,,-99.99,,2013-01-01 13:52:00,
2013-01-01 09:02:00,31.0,21.0,-100.00,WSW,245,2.0,11.0,65,0.00,,,-99.99,,2013-01-01 14:02:00,
2013-01-01 09:12:00,30.0,20.0,-100.00,West,280,4.0,11.0,64,0.01,,,-99.99,,2013-01-01 14:12:00,
2013-01-01 09:22:00,29.0,19.0,-100.00,West,265,4.0,14.0,64,0.00,,,-99.99,,2013-01-01 14:22:00,
2013-01-01 09:32:00,29.0,18.0,-100.00,West,270,4.0,14.0,63,0.00,,,-99.99,,2013-01-01 14:32:00,
2013-01-01 09:42:00,29.0,17.0,-100.00,West,270,7.0,14.0,60,0.00,,,-99.99,,2013-01-01 14:42:00,
2013-01-01 09:53:00,29.0,16.0,-100.00,West,260,6.0,14.0,58,0.00,,,-99.99,,2013-01-01 14:53:00,
2013-01-01 10:03:00,29.0,16.0,-100.00,West,270,4.0,14.0,59,0.00,,,-99.99,,2013-01-01 15:03:00,
2013-01-01 10:12:00,28.0,15.0,-100.00,West,275,6.0,14.0,57,0.00,,,-99.99,,2013-01-01 15:12:00,
2013-01-01 10:22:00,28.0,15.0,-100.00,West,265,6.0,17.0,57,0.00,,,-99.99,,2013-01-01 15:22:00,
2013-01-01 10:33:00,28.0,15.0,-100.00,West,265,4.0,14.0,56,0.00,,,-99.99,,2013-01-01 15:33:00,
2013-01-01 10:42:00,29.0,15.0,-100.00,West,270,4.0,12.0,56,0.00,,,-99.99,,2013-01-01 15:42:00,
2013-01-01 10:53:00,28.0,15.0,-100.00,WSW,250,4.0,14.0,56,0.00,,,-99.99,,2013-01-01 15:53:00,
2013-01-01 11:02:00,29.0,14.0,-100.00,WSW,250,2.0,11.0,54,0.00,,,-99.99,,2013-01-01 16:02:00,
2013-01-01 11:12:00,28.0,13.0,-100.00,North,-999,-999.0,-999.0,53,0.00,,,-99.99,,2013-01-01 16:12:00,
2013-01-01 11:22:00,28.0,13.0,-100.00,SW,225,4.0,12.0,53,0.00,,,-99.99,,2013-01-01 16:22:00,
2013-01-01 11:33:00,28.0,13.0,-100.00,WSW,250,2.0,9.0,53,0.00,,,-99.99,,2013-01-01 16:33:00,
2013-01-01 11:42:00,28.0,12.0,-100.00,WNW,285,6.0,10.0,51,0.00,,,-99.99,,2013-01-01 16:42:00,
2013-01-01 11:52:00,28.0,13.0,-100.00,West,260,3.0,8.0,52,0.00,,,-99.99,,2013-01-01 16:52:00,
2013-01-01 12:02:00,28.0,13.0,-100.00,West,265,5.0,12.0,52,0.00,,,-99.99,,2013-01-01 17:02:00,
2013-01-01 12:12:00,27.0,13.0,-100.00,West,265,4.0,13.0,52,0.00,,,-99.99,,2013-01-01 17:12:00,
2013-01-01 12:22:00,27.0,13.0,-100.00,West,270,5.0,12.0,53,0.00,,,-99.99,,2013-01-01 17:22:00,
2013-01-01 12:33:00,28.0,13.0,-100.00,SSW,210,4.0,9.0,54,0.00,,,-99.99,,2013-01-01 17:33:00,
2013-01-01 12:43:00,27.0,13.0,-100.00,WSW,250,2.0,9.0,53,0.00,,,-99.99,,2013-01-01 17:43:00,
2013-01-01 12:52:00,28.0,13.0,-100.00,WSW,255,4.0,10.0,53,0.00,,,-99.99,,2013-01-01 17:52:00,
2013-01-01 13:03:00,27.0,13.0,-100.00,West,270,6.0,17.0,52,0.00,,,-99.99,,2013-01-01 18:03:00,
2013-01-01 13:22:00,29.0,13.0,-100.00,WNW,285,3.0,10.0,49,0.00,,,-99.99,,2013-01-01 18:22:00,
2013-01-01 13:33:00,29.0,14.0,-100.00,WNW,285,6.0,16.0,51,0.00,,,-99.99,,2013-01-01 18:33:00,
2013-01-01 13:42:00,29.0,14.0,-100.00,West,280,4.0,11.0,51,0.00,,,-99.99,,2013-01-01 18:42:00,
2013-01-01 13:52:00,29.0,13.0,-100.00,WNW,285,4.0,13.0,51,0.00,,,-99.99,,2013-01-01 18:52:00,
2013-01-01 14:02:00,29.0,13.0,-100.00,West,280,4.0,12.0,50,0.00,,,-99.99,,2013-01-01 19:02:00,
2013-01-01 14:12:00,29.0,12.0,-100.00,WNW,290,6.0,16.0,49,0.00,,,-99.99,,2013-01-01 19:12:00,
2013-01-01 14:22:00,29.0,12.0,-100.00,WNW,285,4.0,16.0,47,0.00,,,-99.99,,2013-01-01 19:22:00,
2013-01-01 14:33:00,29.0,9.0,-100.00,West,270,7.0,16.0,42,0.00,,,-99.99,,2013-01-01 19:33:00,
2013-01-01 14:42:00,29.0,9.0,-100.00,West,260,4.0,16.0,43,0.00,,,-99.99,,2013-01-01 19:42:00,
2013-01-01 15:02:00,28.0,10.0,-100.00,SSW,205,4.0,9.0,45,0.00,,,-99.99,,2013-01-01 20:02:00,
2013-01-01 15:12:00,27.0,9.0,-100.00,West,275,6.0,19.0,45,0.00,,,-99.99,,2013-01-01 20:12:00,
2013-01-01 15:23:00,27.0,10.0,-100.00,WSW,240,4.0,11.0,48,0.00,,,-99.99,,2013-01-01 20:23:00,
2013-01-01 15:32:00,27.0,9.0,-100.00,West,270,4.0,13.0,45,0.00,,,-99.99,,2013-01-01 20:32:00,
2013-01-01 15:42:00,27.0,10.0,-100.00,WSW,255,4.0,11.0,48,0.00,,,-99.99,,2013-01-01 20:42:00,
2013-01-01 15:52:00,26.0,10.0,-100.00,SSW,210,6.0,13.0,50,0.00,,,-99.99,,2013-01-01 20:52:00,
2013-01-01 16:03:00,26.0,9.0,-100.00,West,280,7.0,12.0,50,0.00,,,-99.99,,2013-01-01 21:03:00,
2013-01-01 16:12:00,25.0,9.0,-100.00,WSW,245,3.0,12.0,50,0.00,,,-99.99,,2013-01-01 21:12:00,
2013-01-01 16:22:00,25.0,8.0,-100.00,North,10,2.0,15.0,49,0.00,,,-99.99,,2013-01-01 21:22:00,
2013-01-01 16:33:00,24.0,8.0,-100.00,West,270,3.0,15.0,48,0.00,,,-99.99,,2013-01-01 21:33:00,
2013-01-01 16:42:00,24.0,8.0,-100.00,WNW,295,4.0,11.0,49,0.00,,,-99.99,,2013-01-01 21:42:00,
2013-01-01 16:52:00,23.0,7.0,-100.00,WSW,255,6.0,16.0,48,0.00,,,-99.99,,2013-01-01 21:52:00,
2013-01-01 17:03:00,23.0,7.0,-100.00,WNW,285,2.0,12.0,49,0.00,,,-99.99,,2013-01-01 22:03:00,
2013-01-01 17:12:00,22.0,6.0,-100.00,WSW,255,5.0,10.0,49,0.00,,,-99.99,,2013-01-01 22:12:00,
2013-01-01 17:22:00,22.0,6.0,-100.00,ESE,115,2.0,10.0,50,0.00,,,-99.99,,2013-01-01 22:22:00,
2013-01-01 17:33:00,22.0,7.0,-100.00,WNW,290,3.0,9.0,51,0.00,,,-99.99,,2013-01-01 22:33:00,
2013-01-01 17:42:00,22.0,7.0,-100.00,SW,225,3.0,9.0,51,0.00,,,-99.99,,2013-01-01 22:42:00,
2013-01-01 18:03:00,21.0,7.0,-100.00,SSW,200,4.0,9.0,52,0.00,,,-99.99,,2013-01-01 23:03:00,
2013-01-01 18:12:00,21.0,7.0,-100.00,WSW,245,2.0,9.0,53,0.00,,,-99.99,,2013-01-01 23:12:00,
2013-01-01 18:22:00,21.0,7.0,-100.00,SW,225,2.0,12.0,54,0.00,,,-99.99,,2013-01-01 23:22:00,
2013-01-01 18:32:00,21.0,7.0,-100.00,West,265,1.0,10.0,54,0.00,,,-99.99,,2013-01-01 23:32:00,
2013-01-01 18:42:00,20.0,7.0,-100.00,SW,220,3.0,10.0,54,0.00,,,-99.99,,2013-01-01 23:42:00,
2013-01-01 18:52:00,20.0,6.0,-100.00,WSW,245,2.0,12.0,53,0.00,,,-99.99,,2013-01-01 23:52:00,
2013-01-01 19:02:00,20.0,6.0,-100.00,South,175,2.0,10.0,53,0.00,,,-99.99,,2013-01-02 00:02:00,
2013-01-01 19:12:00,20.0,6.0,-100.00,West,280,1.0,6.0,54,0.00,,,-99.99,,2013-01-02 00:12:00,
2013-01-01 19:22:00,19.0,5.0,-100.00,West,270,1.0,9.0,53,0.00,,,-99.99,,2013-01-02 00:22:00,
2013-01-01 19:32:00,19.0,4.0,-100.00,SW,225,2.0,9.0,52,0.00,,,-99.99,,2013-01-02 00:32:00,
2013-01-01 19:42:00,19.0,4.0,-100.00,West,260,2.0,10.0,50,0.00,,,-99.99,,2013-01-02 00:42:00,
2013-01-01 19:52:00,18.0,4.0,-100.00,WNW,285,1.0,6.0,52,0.00,,,-99.99,,2013-01-02 00:52:00,
2013-01-01 20:02:00,18.0,4.0,-100.00,West,270,1.0,6.0,52,0.00,,,-99.99,,2013-01-02 01:02:00,
2013-01-01 20:12:00,17.0,5.0,-100.00,West,260,1.0,2.0,57,0.00,,,-99.99,,2013-01-02 01:12:00,
2013-01-01 20:22:00,17.0,4.0,-100.00,WSW,240,1.0,2.0,58,0.00,,,-99.99,,2013-01-02 01:22:00,
2013-01-01 20:32:00,16.0,4.0,-100.00,West,260,1.0,6.0,57,0.00,,,-99.99,,2013-01-02 01:32:00,
2013-01-01 20:42:00,17.0,3.0,-100.00,WNW,290,2.0,6.0,54,0.00,,,-99.99,,2013-01-02 01:42:00,
2013-01-01 20:52:00,16.0,3.0,-100.00,West,280,1.0,7.0,55,0.00,,,-99.99,,2013-01-02 01:52:00,
2013-01-01 21:02:00,16.0,2.0,-100.00,West,265,3.0,7.0,53,0.00,,,-99.99,,2013-01-02 02:02:00,
2013-01-01 21:12:00,16.0,2.0,-100.00,NNW,335,2.0,7.0,53,0.00,,,-99.99,,2013-01-02 02:12:00,
2013-01-01 21:22:00,16.0,2.0,-100.00,West,265,3.0,9.0,52,0.00,,,-99.99,,2013-01-02 02:22:00,
2013-01-01 21:32:00,16.0,2.0,-100.00,WNW,295,3.0,7.0,52,0.00,,,-99.99,,2013-01-02 02:32:00,
2013-01-01 21:42:00,16.0,2.0,-100.00,WNW,300,4.0,7.0,52,0.00,,,-99.99,,2013-01-02 02:42:00,
2013-01-01 21:52:00,16.0,2.0,-100.00,WNW,285,2.0,6.0,53,0.00,,,-99.99,,2013-01-02 02:52:00,
2013-01-01 22:02:00,16.0,1.0,-100.00,WSW,255,2.0,8.0,52,0.00,,,-99.99,,2013-01-02 03:02:00,
2013-01-01 22:12:00,16.0,1.0,-100.00,NW,315,1.0,6.0,52,0.00,,,-99.99,,2013-01-02 03:12:00,
2013-01-01 22:22:00,16.0,1.0,-100.00,WSW,250,2.0,6.0,52,0.00,,,-99.99,,2013-01-02 03:22:00,
2013-01-01 22:32:00,15.0,1.0,-100.00,West,280,2.0,9.0,53,0.00,,,-99.99,,2013-01-02 03:32:00,
2013-01-01 22:42:00,15.0,1.0,-100.00,West,280,2.0,9.0,53,0.00,,,-99.99,,2013-01-02 03:42:00,
2013-01-01 22:52:00,15.0,1.0,-100.00,WNW,290,3.0,11.0,53,0.00,,,-99.99,,2013-01-02 03:52:00,
2013-01-01 23:02:00,15.0,2.0,-100.00,West,260,2.0,7.0,55,0.00,,,-99.99,,2013-01-02 04:02:00,
2013-01-01 23:12:00,15.0,1.0,-100.00,SW,215,1.0,7.0,54,0.00,,,-99.99,,2013-01-02 04:12:00,
2013-01-01 23:22:00,14.0,2.0,-100.00,NW,310,2.0,6.0,56,0.00,,,-99.99,,2013-01-02 04:22:00,
2013-01-01 23:32:00,14.0,2.0,-100.00,NW,305,2.0,6.0,56,0.00,,,-99.99,,2013-01-02 04:32:00,
2013-01-01 23:42:00,14.0,1.0,-100.00,WNW,295,4.0,9.0,56,0.00,,,-99.99,,2013-01-02 04:42:00,
2013-01-01 23:52:00,13.0,2.0,-100.00,WNW,300,1.0,5.0,59,0.00,,,-99.99,,2013-01-02 04:52:00,